Terminal Aerodrome Forecast
Issued by NWS Wakefield, VA

Home | Current Version | Previous Version | Text Only | Print | Product List | Glossary On
Versions: 1 2 3 4 5 6 7 8 9 10 11 12 13 14 15 16
000
FTUS41 KAKQ 241423 AAA
TAFORF
TAF AMD
KORF 241423Z 2414/2512 27013G20KT P6SM SCT040
     FM241700 25009KT P6SM SCT050
     FM242200 24008KT P6SM VCSH BKN060
     FM250100 23007KT P6SM BKN100
     FM250800 29006KT P6SM BKN200=

USA.gov is the U.S. government's official web portal to all federal, state and local government web resources and services.